createdAt,value
2023-05-02T00:02:08.769Z,101541.63
2023-05-02T00:04:38.199Z,101546.28
2023-05-02T00:07:06.873Z,101548.09
2023-05-02T00:09:35.638Z,101530.97
2023-05-02T00:12:04.008Z,101505.41
2023-05-02T00:14:31.804Z,101486.88
2023-05-02T00:17:00.104Z,101470.09
2023-05-02T00:19:27.989Z,101421.47
2023-05-02T00:21:57.366Z,101395.66
2023-05-02T00:24:25.227Z,101356.78
2023-05-02T00:26:52.934Z,101316.56
2023-05-02T00:29:20.902Z,101280.44
2023-05-02T00:31:48.608Z,101257.09
2023-05-02T00:34:16.381Z,101228.22
2023-05-02T00:36:44.232Z,101219.94
2023-05-02T00:39:13.404Z,101213.94
2023-05-02T00:41:41.242Z,101210.97
2023-05-02T00:44:09.540Z,101221.53
2023-05-02T00:46:37.466Z,101218.03
2023-05-02T00:49:05.617Z,101219.78
2023-05-02T00:51:34.149Z,101220.56
2023-05-02T00:54:02.260Z,101222.78
2023-05-02T00:56:31.528Z,101228.53
2023-05-02T00:58:59.498Z,101236.22
2023-05-02T01:01:38.005Z,101242.03
2023-05-02T01:04:19.984Z,101255.81
2023-05-02T01:07:00.748Z,101260.34
2023-05-02T01:09:39.211Z,101271.75
2023-05-02T01:12:20.783Z,101280.22
2023-05-02T01:14:54.371Z,101287.09
2023-05-02T01:17:28.246Z,101280.41
2023-05-02T01:20:00.351Z,101270.16
2023-05-02T01:22:30.491Z,101271.53
2023-05-02T01:25:06.725Z,101265.44
2023-05-02T01:27:44.896Z,101271.88
2023-05-02T01:30:15.957Z,101268.19
2023-05-02T01:32:47.195Z,101281.16
2023-05-02T01:35:17.417Z,101276.19
2023-05-02T01:37:47.857Z,101290.72
2023-05-02T01:40:19.470Z,101300.84
2023-05-02T01:42:49.527Z,101310.88
2023-05-02T01:45:20.129Z,101321.22
2023-05-02T01:47:48.927Z,101316.06
2023-05-02T01:50:20.229Z,101315.09
2023-05-02T01:52:50.058Z,101310.13
2023-05-02T01:55:19.440Z,101316.47
2023-05-02T01:57:50.538Z,101316.81
2023-05-02T02:00:21.465Z,101319.50
2023-05-02T02:02:52.226Z,101319.41
2023-05-02T02:05:21.791Z,101316.66
2023-05-02T02:07:49.656Z,101330.97
2023-05-02T02:10:19.163Z,101339.34
2023-05-02T02:12:54.065Z,101341.28
2023-05-02T02:15:32.023Z,101334.59
2023-05-02T02:18:02.504Z,101337.59
2023-05-02T02:20:32.191Z,101336.34
2023-05-02T02:23:01.974Z,101338.03
2023-05-02T02:25:30.639Z,101336.72
2023-05-02T02:27:58.744Z,101343.56
2023-05-02T02:30:28.039Z,101352.72
2023-05-02T02:32:55.837Z,101358.78
2023-05-02T02:35:24.501Z,101347.84
2023-05-02T02:37:59.651Z,101342.44
2023-05-02T02:40:32.652Z,101363.53
2023-05-02T02:43:09.128Z,101359.34
2023-05-02T02:45:43.205Z,101360.00
2023-05-02T02:48:28.090Z,101364.16
2023-05-02T02:51:04.747Z,101357.38
2023-05-02T02:53:41.366Z,101367.25
2023-05-02T02:56:17.471Z,101361.16
2023-05-02T02:58:55.017Z,101361.44
2023-05-02T03:01:28.170Z,101372.41
2023-05-02T03:03:57.673Z,101378.84
2023-05-02T03:06:27.413Z,101382.09
2023-05-02T03:08:56.603Z,101376.31
2023-05-02T03:11:29.814Z,101388.00
2023-05-02T03:13:59.618Z,101392.75
2023-05-02T03:16:36.947Z,101393.41
2023-05-02T03:19:08.328Z,101390.53
2023-05-02T03:21:37.905Z,101403.91
2023-05-02T03:24:16.620Z,101412.47
2023-05-02T03:26:47.687Z,101414.94
2023-05-02T03:29:17.548Z,101409.94
2023-05-02T03:31:47.149Z,101421.91
2023-05-02T03:34:15.449Z,101412.78
2023-05-02T03:36:46.524Z,101411.97
2023-05-02T03:39:14.448Z,101412.88
2023-05-02T03:41:43.959Z,101415.28
2023-05-02T03:44:15.775Z,101411.81
2023-05-02T03:46:43.816Z,101412.88
2023-05-02T03:49:14.703Z,101404.25
2023-05-02T03:51:45.432Z,101417.59
2023-05-02T03:54:14.397Z,101420.41
2023-05-02T03:56:44.666Z,101431.22
2023-05-02T03:59:27.532Z,101425.53
2023-05-02T04:01:55.445Z,101422.69
2023-05-02T04:04:33.551Z,101422.69
2023-05-02T04:07:02.280Z,101434.38
2023-05-02T04:09:31.201Z,101440.72
2023-05-02T04:12:06.147Z,101450.66
2023-05-02T04:14:35.800Z,101461.94
2023-05-02T04:17:04.156Z,101452.16
2023-05-02T04:19:53.107Z,101462.75
2023-05-02T04:22:24.984Z,101469.53
2023-05-02T04:24:57.882Z,101457.56
2023-05-02T04:27:26.990Z,101465.25
2023-05-02T04:29:54.951Z,101462.75
2023-05-02T04:32:24.853Z,101463.78
2023-05-02T04:34:54.816Z,101456.69
2023-05-02T04:37:24.051Z,101468.69
2023-05-02T04:39:51.950Z,101474.56
2023-05-02T04:42:24.307Z,101475.22
2023-05-02T04:45:02.441Z,101483.09
2023-05-02T04:47:31.022Z,101501.75
2023-05-02T04:50:00.745Z,101526.66
2023-05-02T04:52:29.780Z,101540.03
2023-05-02T04:54:57.617Z,101558.94
2023-05-02T04:57:27.037Z,101584.84
2023-05-02T04:59:59.002Z,101595.00
2023-05-02T05:02:28.005Z,101612.75
2023-05-02T05:04:57.404Z,101624.16
2023-05-02T05:07:26.826Z,101632.56
2023-05-02T05:09:55.860Z,101644.16
2023-05-02T05:12:26.203Z,101653.94
2023-05-02T05:14:54.797Z,101669.47
2023-05-02T05:17:24.882Z,101672.91
2023-05-02T05:19:53.430Z,101663.94
2023-05-02T05:22:21.911Z,101658.16
2023-05-02T05:24:55.102Z,101653.56
2023-05-02T05:27:27.701Z,101648.09
2023-05-02T05:29:55.793Z,101642.06
2023-05-02T05:32:24.244Z,101644.25
2023-05-02T05:34:53.127Z,101647.59
2023-05-02T05:37:23.083Z,101651.97
2023-05-02T05:39:50.881Z,101669.09
2023-05-02T05:42:20.130Z,101674.16
2023-05-02T05:44:51.491Z,101667.97
2023-05-02T05:47:23.010Z,101662.97
2023-05-02T05:49:54.386Z,101650.88
2023-05-02T05:52:24.026Z,101623.22
2023-05-02T05:54:55.519Z,101625.41
2023-05-02T05:57:27.283Z,101615.41
2023-05-02T05:59:57.241Z,101620.25
2023-05-02T06:02:25.645Z,101618.47
2023-05-02T06:04:53.783Z,101606.78
2023-05-02T06:07:24.419Z,101613.41
2023-05-02T06:09:52.136Z,101644.47
2023-05-02T06:12:20.069Z,101648.09
2023-05-02T06:14:50.721Z,101656.06
2023-05-02T06:17:18.657Z,101653.06
2023-05-02T06:19:46.388Z,101669.13
2023-05-02T06:22:14.179Z,101679.78
2023-05-02T06:24:41.952Z,101704.22
2023-05-02T06:27:09.766Z,101705.88
2023-05-02T06:29:37.709Z,101722.16
2023-05-02T06:32:08.129Z,101736.88
2023-05-02T06:34:35.892Z,101737.72
2023-05-02T06:37:03.660Z,101750.06
2023-05-02T06:39:31.370Z,101756.84
2023-05-02T06:41:59.558Z,101762.84
2023-05-02T06:44:28.678Z,101767.94
2023-05-02T06:46:56.550Z,101764.28
2023-05-02T06:49:27.230Z,101762.63
2023-05-02T06:51:54.986Z,101809.94
2023-05-02T06:54:22.766Z,101835.97
2023-05-02T06:56:50.585Z,101841.28
2023-05-02T06:59:18.356Z,101861.00
2023-05-02T07:01:46.052Z,101861.03
2023-05-02T07:04:13.903Z,101897.28
2023-05-02T07:06:43.142Z,101904.25
2023-05-02T07:09:11.013Z,101912.25
2023-05-02T07:11:38.642Z,101919.66
2023-05-02T07:14:06.479Z,101934.66
2023-05-02T07:16:34.527Z,101938.09
2023-05-02T07:19:04.672Z,101951.94
2023-05-02T07:21:32.501Z,101963.00
2023-05-02T07:24:02.250Z,101980.13
2023-05-02T07:26:30.015Z,101993.47
2023-05-02T07:28:57.901Z,102004.84
2023-05-02T07:31:25.801Z,102012.50
2023-05-02T07:33:53.608Z,102024.66
2023-05-02T07:36:21.318Z,102021.88
2023-05-02T07:38:49.044Z,102037.72
2023-05-02T07:41:18.284Z,102038.31
2023-05-02T07:43:46.263Z,102045.63
2023-05-02T07:46:14.012Z,102056.81
2023-05-02T07:48:42.727Z,102068.00
2023-05-02T07:51:11.835Z,102065.22
2023-05-02T07:53:39.678Z,102074.53
2023-05-02T07:56:08.876Z,102085.94
2023-05-02T07:58:38.396Z,102089.28
2023-05-02T08:01:06.356Z,102094.38
2023-05-02T08:03:34.439Z,102098.84
2023-05-02T08:06:04.147Z,102099.75
2023-05-02T08:08:32.013Z,102100.84
2023-05-02T08:10:59.871Z,102110.63
2023-05-02T08:13:28.582Z,102116.34
2023-05-02T08:15:58.572Z,102127.34
2023-05-02T08:18:26.388Z,102134.41
2023-05-02T08:20:54.228Z,102141.91
2023-05-02T08:23:22.166Z,102149.06
2023-05-02T08:25:49.906Z,102152.09
2023-05-02T08:28:18.596Z,102162.91
2023-05-02T08:30:46.492Z,102176.06
2023-05-02T08:33:16.015Z,102188.44
2023-05-02T08:35:44.064Z,102204.16
2023-05-02T08:38:11.833Z,102210.34
2023-05-02T08:40:42.647Z,102206.47
2023-05-02T08:43:13.063Z,102215.91
2023-05-02T08:45:42.228Z,102216.19
2023-05-02T08:48:12.739Z,102220.81
2023-05-02T08:50:44.512Z,102235.00
2023-05-02T08:56:15.589Z,102230.38
2023-05-02T08:58:43.262Z,102243.38
2023-05-02T09:01:14.100Z,102237.84
2023-05-02T09:03:43.887Z,102254.94
2023-05-02T09:06:16.441Z,102254.69
2023-05-02T09:08:45.778Z,102267.22
2023-05-02T09:11:14.333Z,102284.47
2023-05-02T09:13:43.257Z,102286.06
2023-05-02T09:16:12.366Z,102303.63
2023-05-02T09:18:41.676Z,102304.75
2023-05-02T09:21:12.337Z,102312.38
2023-05-02T09:23:43.134Z,102308.69
2023-05-02T09:26:15.941Z,102329.06
2023-05-02T09:28:45.560Z,102317.53
2023-05-02T09:31:18.756Z,102326.22
2023-05-02T09:33:51.006Z,102337.25
2023-05-02T09:36:22.452Z,102333.81
2023-05-02T09:38:51.971Z,102343.22
2023-05-02T09:41:21.001Z,102352.03
2023-05-02T09:43:57.222Z,102360.34
2023-05-02T09:46:25.277Z,102362.91
2023-05-02T09:48:56.134Z,102372.59
2023-05-02T09:51:25.587Z,102377.56
2023-05-02T09:53:55.991Z,102385.75
2023-05-02T09:56:24.813Z,102390.41
2023-05-02T09:59:12.846Z,102396.88
2023-05-02T10:01:42.556Z,102412.94
2023-05-02T10:04:16.275Z,102416.63
2023-05-02T10:06:45.213Z,102413.75
2023-05-02T10:09:19.789Z,102411.59
2023-05-02T10:11:53.997Z,102423.75
2023-05-02T10:14:23.377Z,102410.13
2023-05-02T10:16:59.189Z,102407.84
2023-05-02T10:19:31.424Z,102411.47
2023-05-02T10:22:00.110Z,102422.00
2023-05-02T10:24:29.792Z,102427.00
2023-05-02T10:26:57.945Z,102424.56
2023-05-02T10:29:28.577Z,102438.06
2023-05-02T10:31:58.998Z,102446.78
2023-05-02T10:34:29.055Z,102448.44
2023-05-02T10:37:01.202Z,102445.34
2023-05-02T10:39:33.133Z,102449.81
2023-05-02T10:42:03.487Z,102448.56
2023-05-02T10:44:35.223Z,102457.50
2023-05-02T10:47:03.355Z,102453.56
2023-05-02T10:49:31.220Z,102456.41
2023-05-02T10:51:58.974Z,102457.59
2023-05-02T10:54:27.175Z,102463.91
2023-05-02T10:57:09.273Z,102460.44
2023-05-02T10:59:38.637Z,102467.22
2023-05-02T11:02:28.165Z,102469.19
2023-05-02T11:05:04.594Z,102465.44
2023-05-02T11:07:33.614Z,102470.72
2023-05-02T11:10:27.782Z,102474.88
2023-05-02T11:13:01.080Z,102475.94
2023-05-02T11:16:00.230Z,102479.19
2023-05-02T11:18:27.994Z,102480.25
2023-05-02T11:21:29.946Z,102482.09
2023-05-02T11:24:35.247Z,102470.53
2023-05-02T11:27:40.956Z,102471.53
2023-05-02T11:30:12.799Z,102485.00
2023-05-02T11:33:19.850Z,102471.56
2023-05-02T11:35:49.351Z,102474.88
2023-05-02T11:38:22.636Z,102468.34
2023-05-02T11:40:52.254Z,102469.38
2023-05-02T11:43:22.332Z,102469.56
2023-05-02T11:45:51.822Z,102483.47
2023-05-02T11:48:22.656Z,102488.78
2023-05-02T11:50:52.506Z,102481.06
2023-05-02T11:53:23.474Z,102481.41
2023-05-02T11:55:52.745Z,102496.56
2023-05-02T11:58:23.995Z,102497.91
2023-05-02T12:00:54.383Z,102487.09
2023-05-02T12:03:23.903Z,102492.06
2023-05-02T12:05:52.295Z,102498.03
2023-05-02T12:08:21.883Z,102501.84
2023-05-02T12:10:51.896Z,102488.28
2023-05-02T12:13:20.654Z,102490.94
2023-05-02T12:15:49.717Z,102494.47
2023-05-02T12:18:22.085Z,102509.75
2023-05-02T12:20:51.227Z,102503.59
2023-05-02T12:23:19.557Z,102513.19
2023-05-02T12:25:48.198Z,102511.09
2023-05-02T12:28:18.919Z,102515.81
2023-05-02T12:30:49.010Z,102508.94
2023-05-02T12:33:18.883Z,102521.94
2023-05-02T12:35:48.027Z,102520.59
2023-05-02T12:38:17.182Z,102524.72
2023-05-02T12:40:50.428Z,102527.28
2023-05-02T12:43:18.352Z,102531.88
2023-05-02T12:45:48.270Z,102537.72
2023-05-02T12:48:22.491Z,102533.09
2023-05-02T12:50:51.085Z,102538.84
2023-05-02T12:53:18.958Z,102541.63
2023-05-02T12:55:46.928Z,102541.16
2023-05-02T12:58:14.704Z,102544.09
2023-05-02T13:00:45.654Z,102540.81
2023-05-02T13:03:15.045Z,102550.34
2023-05-02T13:05:45.021Z,102539.19
2023-05-02T13:08:13.098Z,102538.25
2023-05-02T13:10:40.834Z,102537.31
2023-05-02T13:13:08.536Z,102539.09
2023-05-02T13:15:36.238Z,102539.81
2023-05-02T13:18:04.372Z,102538.19
2023-05-02T13:20:32.398Z,102526.34
2023-05-02T13:23:01.440Z,102519.38
2023-05-02T13:25:29.419Z,102520.00
2023-05-02T13:27:57.139Z,102515.06
2023-05-02T13:30:25.350Z,102515.31
2023-05-02T13:32:53.316Z,102516.13
2023-05-02T13:35:21.517Z,102516.25
2023-05-02T13:37:49.219Z,102524.69
2023-05-02T13:40:18.537Z,102536.22
2023-05-02T13:42:46.446Z,102530.50
2023-05-02T13:45:14.736Z,102537.38
2023-05-02T13:47:42.602Z,102530.69
2023-05-02T13:50:10.631Z,102529.38
2023-05-02T13:52:38.701Z,102533.97
2023-05-02T13:55:07.338Z,102524.56
2023-05-02T13:57:36.488Z,102526.84
2023-05-02T14:00:05.747Z,102520.84
2023-05-02T14:02:33.830Z,102519.75
2023-05-02T14:05:01.624Z,102530.09
2023-05-02T14:07:29.659Z,102535.75
2023-05-02T14:09:57.692Z,102538.25
2023-05-02T14:12:25.724Z,102520.22
2023-05-02T14:14:54.913Z,102519.69
2023-05-02T14:17:25.058Z,102515.66
2023-05-02T14:19:52.824Z,102515.97
2023-05-02T14:22:21.117Z,102514.19
2023-05-02T14:24:48.966Z,102521.44
2023-05-02T14:27:19.063Z,102523.03
2023-05-02T14:29:47.519Z,102510.88
2023-05-02T14:32:17.258Z,102508.25
2023-05-02T14:34:45.265Z,102511.78
2023-05-02T14:37:13.154Z,102523.81
2023-05-02T14:39:42.510Z,102510.19
2023-05-02T14:42:10.356Z,102507.56
2023-05-02T14:44:38.034Z,102493.06
2023-05-02T14:47:05.904Z,102493.78
2023-05-02T14:49:35.221Z,102476.69
2023-05-02T14:52:03.316Z,102494.09
2023-05-02T14:54:31.503Z,102488.44
2023-05-02T14:56:59.896Z,102497.75
2023-05-02T14:59:29.899Z,102496.56
2023-05-02T15:01:58.261Z,102494.53
2023-05-02T15:04:27.784Z,102497.59
2023-05-02T15:06:58.332Z,102490.13
2023-05-02T15:09:27.174Z,102492.56
2023-05-02T15:11:54.924Z,102504.34
2023-05-02T15:14:22.838Z,102488.78
2023-05-02T15:16:50.864Z,102502.38
2023-05-02T15:19:18.640Z,102506.19
2023-05-02T15:21:46.388Z,102513.00
2023-05-02T15:24:15.653Z,102495.19
2023-05-02T15:26:43.373Z,102504.31
2023-05-02T15:29:11.340Z,102497.31
2023-05-02T15:31:39.200Z,102500.53
2023-05-02T15:34:07.267Z,102501.41
2023-05-02T15:36:37.315Z,102504.06
2023-05-02T15:39:05.418Z,102513.38
2023-05-02T15:41:34.854Z,102514.47
2023-05-02T15:44:02.826Z,102498.94
2023-05-02T15:46:30.657Z,102499.47
2023-05-02T15:48:58.607Z,102507.84
2023-05-02T15:51:26.890Z,102513.75
2023-05-02T15:53:55.526Z,102506.44
2023-05-02T15:56:23.397Z,102515.50
2023-05-02T15:58:52.608Z,102523.72
2023-05-02T16:01:24.120Z,102519.91
2023-05-02T16:03:52.583Z,102505.47
2023-05-02T16:06:20.483Z,102512.56
2023-05-02T16:08:48.248Z,102526.81
2023-05-02T16:11:16.093Z,102523.94
2023-05-02T16:13:43.903Z,102521.06
2023-05-02T16:16:13.251Z,102538.78
2023-05-02T16:18:41.145Z,102539.72
2023-05-02T16:21:09.076Z,102540.13
2023-05-02T16:23:36.813Z,102540.84
2023-05-02T16:26:04.714Z,102537.78
2023-05-02T16:28:32.444Z,102531.50
2023-05-02T16:31:00.319Z,102540.81
2023-05-02T16:33:29.945Z,102538.03
2023-05-02T16:36:04.544Z,102542.31
2023-05-02T16:38:32.730Z,102532.28
2023-05-02T16:41:04.395Z,102531.59
2023-05-02T16:43:32.152Z,102534.44
2023-05-02T16:46:01.500Z,102529.97
2023-05-02T16:48:30.734Z,102542.59
2023-05-02T16:50:58.724Z,102532.41
2023-05-02T16:53:26.885Z,102544.06
2023-05-02T16:55:54.761Z,102544.50
2023-05-02T16:58:24.719Z,102536.50
2023-05-02T17:00:52.613Z,102557.09
2023-05-02T17:03:20.469Z,102547.75
2023-05-02T17:05:49.701Z,102521.44
2023-05-02T17:08:17.878Z,102548.94
2023-05-02T17:10:49.666Z,102542.59
2023-05-02T17:13:17.341Z,102558.22
2023-05-02T17:15:45.139Z,102553.03
2023-05-02T17:18:13.144Z,102572.13
2023-05-02T17:20:41.492Z,102573.69
2023-05-02T17:23:11.033Z,102574.75
2023-05-02T17:25:39.453Z,102582.41
2023-05-02T17:28:07.733Z,102587.41
2023-05-02T17:30:35.640Z,102566.84
2023-05-02T17:33:03.986Z,102591.19
2023-05-02T17:35:32.898Z,102589.47
2023-05-02T17:38:00.736Z,102593.91
2023-05-02T17:40:31.675Z,102600.69
2023-05-02T17:42:59.470Z,102589.38
2023-05-02T17:45:28.986Z,102586.88
2023-05-02T17:47:56.890Z,102598.44
2023-05-02T17:50:24.699Z,102607.53
2023-05-02T17:52:53.006Z,102601.97
2023-05-02T17:55:21.255Z,102590.69
2023-05-02T17:57:50.514Z,102607.78
2023-05-02T18:00:18.770Z,102601.47
2023-05-02T18:02:47.445Z,102607.53
2023-05-02T18:05:15.285Z,102604.72
2023-05-02T18:07:43.086Z,102605.97
2023-05-02T18:10:11.456Z,102612.53
2023-05-02T18:12:39.296Z,102609.72
2023-05-02T18:15:09.546Z,102612.03
2023-05-02T18:17:38.196Z,102614.41
2023-05-02T18:20:07.222Z,102625.72
2023-05-02T18:22:35.732Z,102617.69
2023-05-02T18:25:03.880Z,102631.88
2023-05-02T18:27:32.495Z,102629.69
2023-05-02T18:30:00.724Z,102627.84
2023-05-02T18:32:31.476Z,102628.34
2023-05-02T18:34:59.680Z,102627.13
2023-05-02T18:37:31.560Z,102632.34
2023-05-02T18:39:59.567Z,102640.84
2023-05-02T18:42:27.500Z,102629.69
2023-05-02T18:45:13.418Z,102629.59
2023-05-02T18:47:43.076Z,102641.56
2023-05-02T18:50:11.179Z,102639.88
2023-05-02T18:52:39.182Z,102641.97
2023-05-02T18:55:07.891Z,102641.59
2023-05-02T18:57:35.921Z,102643.75
2023-05-02T19:00:06.179Z,102646.66
2023-05-02T19:02:34.888Z,102648.84
2023-05-02T19:05:06.701Z,102651.66
2023-05-02T19:07:36.301Z,102660.69
2023-05-02T19:10:06.831Z,102664.53
2023-05-02T19:12:39.559Z,102664.38
2023-05-02T19:15:09.626Z,102662.31
2023-05-02T19:17:37.724Z,102661.56
2023-05-02T19:20:08.810Z,102670.88
2023-05-02T19:22:37.400Z,102670.28
2023-05-02T19:25:09.551Z,102676.66
2023-05-02T19:27:37.746Z,102675.41
2023-05-02T19:30:09.155Z,102673.72
2023-05-02T19:32:37.854Z,102685.66
2023-05-02T19:35:09.088Z,102682.28
2023-05-02T19:37:36.869Z,102684.28
2023-05-02T19:40:05.140Z,102686.03
2023-05-02T19:42:33.425Z,102688.09
2023-05-02T19:45:01.519Z,102689.06
2023-05-02T19:47:30.092Z,102699.19
2023-05-02T19:49:57.871Z,102691.25
2023-05-02T19:52:27.605Z,102695.94
2023-05-02T19:54:55.580Z,102703.19
2023-05-02T19:57:23.488Z,102700.88
2023-05-02T19:59:51.886Z,102703.34
2023-05-02T20:02:19.841Z,102708.22
2023-05-02T20:04:47.833Z,102712.81
2023-05-02T20:07:15.632Z,102720.00
2023-05-02T20:09:45.315Z,102720.16
2023-05-02T20:12:13.523Z,102714.00
2023-05-02T20:14:41.800Z,102719.66
2023-05-02T20:17:09.646Z,102715.97
2023-05-02T20:19:37.430Z,102732.28
2023-05-02T20:22:05.378Z,102730.72
2023-05-02T20:24:33.145Z,102725.09
2023-05-02T20:27:02.637Z,102729.97
2023-05-02T20:29:30.591Z,102727.38
2023-05-02T20:31:59.358Z,102730.13
2023-05-02T20:34:27.313Z,102730.03
2023-05-02T20:36:55.566Z,102729.22
2023-05-02T20:39:24.583Z,102736.50
2023-05-02T20:41:52.770Z,102740.97
2023-05-02T20:44:22.531Z,102751.69
2023-05-02T20:46:51.375Z,102744.75
2023-05-02T20:49:19.366Z,102748.53
2023-05-02T20:51:47.172Z,102749.44
2023-05-02T20:54:14.952Z,102743.13
2023-05-02T20:56:42.789Z,102747.72
2023-05-02T20:59:11.523Z,102747.66
2023-05-02T21:01:41.153Z,102750.63
2023-05-02T21:04:09.135Z,102759.59
2023-05-02T21:06:37.403Z,102750.63
2023-05-02T21:09:05.365Z,102752.44
2023-05-02T21:11:33.240Z,102755.19
2023-05-02T21:14:02.452Z,102759.75
2023-05-02T21:16:30.250Z,102762.56
2023-05-02T21:18:59.589Z,102761.81
2023-05-02T21:21:27.535Z,102764.50
2023-05-02T21:23:55.508Z,102765.50
2023-05-02T21:26:23.445Z,102763.63
2023-05-02T21:28:51.347Z,102757.28
2023-05-02T21:31:19.280Z,102764.59
2023-05-02T21:33:47.077Z,102764.81
2023-05-02T21:36:18.877Z,102762.97
2023-05-02T21:38:47.354Z,102761.28
2023-05-02T21:41:15.188Z,102768.56
2023-05-02T21:43:43.069Z,102765.03
2023-05-02T21:46:12.677Z,102768.75
2023-05-02T21:48:52.209Z,102767.03
2023-05-02T21:51:21.404Z,102757.19
2023-05-02T21:53:49.286Z,102760.13
2023-05-02T21:56:17.039Z,102760.88
2023-05-02T21:58:47.825Z,102763.81
2023-05-02T22:01:16.175Z,102754.78
2023-05-02T22:03:44.256Z,102760.06
2023-05-02T22:06:13.521Z,102759.94
2023-05-02T22:08:45.011Z,102759.91
2023-05-02T22:11:12.873Z,102761.69
2023-05-02T22:13:41.161Z,102773.69
2023-05-02T22:16:09.089Z,102769.19
2023-05-02T22:18:36.964Z,102761.13
2023-05-02T22:21:04.942Z,102765.56
2023-05-02T22:23:49.979Z,102765.91
2023-05-02T22:26:19.667Z,102773.00
2023-05-02T22:28:47.391Z,102766.59
2023-05-02T22:31:15.241Z,102773.09
2023-05-02T22:33:43.131Z,102773.25
2023-05-02T22:36:11.127Z,102762.53
2023-05-02T22:38:39.664Z,102764.34
2023-05-02T22:41:07.780Z,102776.88
2023-05-02T22:43:37.363Z,102773.31
2023-05-02T22:46:06.271Z,102777.06
2023-05-02T22:48:34.217Z,102769.94
2023-05-02T22:51:02.152Z,102770.94
2023-05-02T22:53:30.171Z,102770.06
2023-05-02T22:55:57.913Z,102775.75
2023-05-02T22:58:25.682Z,102767.72
2023-05-02T23:00:54.997Z,102764.16
2023-05-02T23:03:23.003Z,102768.84
2023-05-02T23:05:51.045Z,102756.06
2023-05-02T23:08:18.854Z,102752.44
2023-05-02T23:10:46.873Z,102762.44
2023-05-02T23:13:14.693Z,102767.84
2023-05-02T23:15:43.377Z,102763.31
2023-05-02T23:18:12.943Z,102758.88
2023-05-02T23:20:40.999Z,102757.09
2023-05-02T23:23:08.881Z,102746.41
2023-05-02T23:25:37.587Z,102746.72
2023-05-02T23:28:05.632Z,102743.91
2023-05-02T23:30:50.901Z,102736.69
2023-05-02T23:33:31.663Z,102741.22
2023-05-02T23:36:01.680Z,102731.47
2023-05-02T23:38:29.844Z,102729.81
2023-05-02T23:40:57.775Z,102732.53
2023-05-02T23:43:25.836Z,102727.97
2023-05-02T23:45:53.599Z,102728.13
2023-05-02T23:48:34.613Z,102727.19
2023-05-02T23:51:19.911Z,102728.06
2023-05-02T23:53:52.614Z,102726.13
2023-05-02T23:56:20.992Z,102731.53
2023-05-02T23:58:48.798Z,102728.97
